Time;durP1;ratioP1;P1;durP2;ratioP2;P2;SDS_P1;SDS_P2;PMS_P1;PMS_P2;Temp;Humidity;BMP_temperature;BMP_pressure;BME280_temperature;BME280_humidity;BME280_pressure;Samples;Min_cycle;Max_cycle;Signal;HPM_P1;HPM_P2
2024/01/19 00:02:22;;;;;;;25.35;12.57;;;;;;;;;;5110767;27;20082;-64
2024/01/19 00:04:49;;;;;;;28.25;12.68;;;;;;;;;;5110975;27;20043;-67
2024/01/19 00:07:15;;;;;;;34.47;12.05;;;;;;;;;;5128763;27;20043;-63
2024/01/19 00:09:42;;;;;;;32.05;13.55;;;;;;;;;;5128815;27;20526;-64
2024/01/19 00:12:08;;;;;;;24.85;13.02;;;;;;;;;;5129037;27;20071;-65
2024/01/19 00:14:35;;;;;;;29.35;12.90;;;;;;;;;;5128572;27;20296;-64
2024/01/19 00:17:01;;;;;;;26.20;12.88;;;;;;;;;;5128673;27;20126;-66
2024/01/19 00:19:28;;;;;;;27.55;13.63;;;;;;;;;;5128294;27;20051;-67
2024/01/19 00:21:54;;;;;;;32.25;13.00;;;;;;;;;;5128946;27;20111;-63
2024/01/19 00:24:21;;;;;;;24.85;12.10;;;;;;;;;;5128232;27;20483;-64
2024/01/19 00:26:47;;;;;;;28.20;11.75;;;;;;;;;;5128807;27;20043;-64
2024/01/19 00:29:14;;;;;;;25.70;12.02;;;;;;;;;;5127923;27;20089;-66
2024/01/19 00:31:45;;;;;;;25.63;12.13;;;;;;;;;;5128871;27;20126;-64
2024/01/19 00:34:12;;;;;;;26.03;12.10;;;;;;;;;;5128483;27;20130;-65
2024/01/19 00:36:39;;;;;;;26.25;11.80;;;;;;;;;;5128707;27;20043;-64
2024/01/19 00:39:05;;;;;;;32.20;14.15;;;;;;;;;;5127993;27;20436;-65
2024/01/19 00:41:31;;;;;;;25.77;11.57;;;;;;;;;;5128514;27;20553;-65
2024/01/19 00:43:58;;;;;;;30.00;12.20;;;;;;;;;;5128020;27;20054;-66
2024/01/19 00:46:24;;;;;;;25.08;10.73;;;;;;;;;;5128526;27;20088;-65
2024/01/19 00:48:51;;;;;;;30.58;12.18;;;;;;;;;;5128021;27;20046;-65
2024/01/19 00:51:17;;;;;;;28.73;12.77;;;;;;;;;;5128448;27;20043;-65
2024/01/19 00:53:44;;;;;;;29.88;12.13;;;;;;;;;;5128088;27;20043;-67
2024/01/19 00:56:10;;;;;;;26.95;11.80;;;;;;;;;;5128213;27;20055;-66
2024/01/19 00:58:37;;;;;;;25.17;10.48;;;;;;;;;;5127405;27;20062;-64
2024/01/19 01:01:04;;;;;;;28.92;10.88;;;;;;;;;;5127448;27;20079;-64
2024/01/19 01:03:31;;;;;;;29.60;12.70;;;;;;;;;;5128415;27;20051;-65
2024/01/19 01:05:59;;;;;;;28.73;10.65;;;;;;;;;;5127857;27;20039;-64
2024/01/19 01:08:27;;;;;;;29.92;11.98;;;;;;;;;;5127314;27;20047;-65
2024/01/19 01:10:54;;;;;;;25.05;10.95;;;;;;;;;;5127410;27;20491;-65
2024/01/19 01:13:21;;;;;;;36.60;12.20;;;;;;;;;;5128034;27;20047;-66
2024/01/19 01:15:48;;;;;;;21.65;11.55;;;;;;;;;;5127590;27;20469;-64
2024/01/19 01:18:16;;;;;;;25.90;11.93;;;;;;;;;;5127373;27;20051;-64
2024/01/19 01:20:43;;;;;;;23.65;11.25;;;;;;;;;;5127788;27;20092;-65
2024/01/19 01:23:10;;;;;;;28.10;11.88;;;;;;;;;;5127928;27;20043;-64
2024/01/19 01:25:36;;;;;;;24.77;12.98;;;;;;;;;;5109253;28;20054;-64
2024/01/19 01:28:03;;;;;;;25.08;12.63;;;;;;;;;;5127356;27;20403;-63
2024/01/19 01:30:29;;;;;;;28.70;11.50;;;;;;;;;;5127803;27;20135;-62
2024/01/19 01:32:56;;;;;;;36.53;13.60;;;;;;;;;;5109712;28;20108;-62
2024/01/19 01:35:22;;;;;;;26.17;11.40;;;;;;;;;;5127598;27;20043;-64
2024/01/19 01:37:49;;;;;;;27.90;11.25;;;;;;;;;;5127221;27;20047;-63
2024/01/19 01:40:15;;;;;;;25.65;10.65;;;;;;;;;;5126975;27;20061;-64
2024/01/19 01:42:42;;;;;;;22.17;9.88;;;;;;;;;;5127773;28;20055;-62
2024/01/19 01:45:08;;;;;;;24.40;12.15;;;;;;;;;;5108863;28;20124;-62
2024/01/19 01:47:34;;;;;;;26.45;10.98;;;;;;;;;;5127455;28;20394;-63
2024/01/19 01:50:01;;;;;;;17.70;8.93;;;;;;;;;;5127408;28;20053;-63
2024/01/19 01:52:28;;;;;;;21.70;9.70;;;;;;;;;;5127340;28;20398;-66
2024/01/19 01:54:55;;;;;;;26.52;10.73;;;;;;;;;;5127810;28;20043;-62
2024/01/19 01:57:22;;;;;;;26.38;10.32;;;;;;;;;;5127638;28;20043;-62
2024/01/19 01:59:49;;;;;;;19.42;8.65;;;;;;;;;;5127541;28;20043;-63
2024/01/19 02:02:16;;;;;;;18.83;9.35;;;;;;;;;;5127538;28;20047;-64
2024/01/19 02:04:43;;;;;;;19.83;8.77;;;;;;;;;;5127360;28;20142;-63
2024/01/19 02:07:09;;;;;;;18.20;9.02;;;;;;;;;;5127091;28;20069;-62
2024/01/19 02:09:36;;;;;;;17.23;9.07;;;;;;;;;;5127252;28;20048;-65
2024/01/19 02:12:03;;;;;;;25.60;8.93;;;;;;;;;;5130313;27;20058;-64
2024/01/19 02:14:30;;;;;;;18.75;8.77;;;;;;;;;;5131658;27;20083;-65
2024/01/19 02:16:56;;;;;;;19.02;8.85;;;;;;;;;;5131749;27;20142;-64
2024/01/19 02:19:22;;;;;;;18.63;9.73;;;;;;;;;;5131079;27;20132;-63
2024/01/19 02:21:49;;;;;;;19.35;9.63;;;;;;;;;;5116520;27;20043;-69
2024/01/19 02:24:15;;;;;;;15.40;9.18;;;;;;;;;;5135734;27;20047;-65
2024/01/19 02:26:42;;;;;;;18.17;8.57;;;;;;;;;;5131323;27;20451;-65
2024/01/19 02:29:09;;;;;;;18.58;8.85;;;;;;;;;;5131297;27;20047;-62
2024/01/19 02:31:35;;;;;;;22.80;9.65;;;;;;;;;;5131284;27;20515;-62
2024/01/19 02:34:02;;;;;;;21.90;7.38;;;;;;;;;;5113087;27;20507;-63
2024/01/19 02:36:28;;;;;;;16.92;8.43;;;;;;;;;;5130289;27;20108;-64
2024/01/19 02:38:55;;;;;;;20.67;8.32;;;;;;;;;;5112199;27;20047;-63
2024/01/19 02:41:21;;;;;;;19.77;8.38;;;;;;;;;;5130910;27;20043;-65
2024/01/19 02:43:48;;;;;;;16.77;8.63;;;;;;;;;;5131035;27;20617;-62
2024/01/19 02:46:15;;;;;;;19.75;8.27;;;;;;;;;;5132650;27;20096;-65
2024/01/19 02:48:41;;;;;;;15.73;8.38;;;;;;;;;;5136615;27;20043;-68
2024/01/19 02:51:08;;;;;;;19.35;8.07;;;;;;;;;;5131020;27;20564;-62
2024/01/19 02:53:34;;;;;;;21.20;9.10;;;;;;;;;;5132324;27;20047;-63
2024/01/19 02:56:01;;;;;;;19.50;7.97;;;;;;;;;;5133235;27;20051;-62
2024/01/19 02:58:27;;;;;;;15.18;8.05;;;;;;;;;;5132795;27;20380;-65
2024/01/19 03:00:54;;;;;;;19.52;8.23;;;;;;;;;;5131894;27;20669;-63
2024/01/19 03:03:20;;;;;;;21.23;8.90;;;;;;;;;;5131240;27;20051;-63
2024/01/19 03:05:47;;;;;;;17.50;7.93;;;;;;;;;;5131060;27;20090;-65
2024/01/19 03:08:13;;;;;;;20.38;7.75;;;;;;;;;;5129788;27;20104;-63
2024/01/19 03:10:40;;;;;;;15.32;7.30;;;;;;;;;;5131167;27;20149;-66
2024/01/19 03:13:06;;;;;;;16.73;8.13;;;;;;;;;;5133933;27;20047;-64
2024/01/19 03:15:32;;;;;;;14.73;7.68;;;;;;;;;;5131591;27;20054;-64
2024/01/19 03:17:59;;;;;;;18.35;7.50;;;;;;;;;;5129740;27;20047;-63
2024/01/19 03:20:25;;;;;;;17.42;7.90;;;;;;;;;;5112121;27;20048;-65
2024/01/19 03:22:52;;;;;;;21.00;8.45;;;;;;;;;;5129753;27;20450;-63
2024/01/19 03:25:18;;;;;;;17.30;9.30;;;;;;;;;;5129929;27;20051;-63
2024/01/19 03:27:44;;;;;;;19.33;7.53;;;;;;;;;;5129344;27;20487;-64
2024/01/19 03:30:11;;;;;;;14.43;8.18;;;;;;;;;;5129712;27;20051;-64
2024/01/19 03:32:38;;;;;;;16.67;7.40;;;;;;;;;;5130005;27;20576;-65
2024/01/19 03:35:04;;;;;;;18.00;7.63;;;;;;;;;;5129918;27;20113;-66
2024/01/19 03:37:31;;;;;;;16.85;7.53;;;;;;;;;;5132994;27;20054;-65
2024/01/19 03:39:57;;;;;;;22.20;8.05;;;;;;;;;;5131262;27;20046;-64
2024/01/19 03:42:26;;;;;;;15.05;7.45;;;;;;;;;;5129601;27;20542;-65
2024/01/19 03:44:52;;;;;;;17.95;6.68;;;;;;;;;;5130286;27;20053;-63
2024/01/19 03:47:19;;;;;;;19.13;7.90;;;;;;;;;;5129307;27;20101;-63
2024/01/19 03:49:45;;;;;;;18.52;7.78;;;;;;;;;;5128926;27;20047;-65
2024/01/19 03:52:12;;;;;;;14.95;7.95;;;;;;;;;;5128280;27;20074;-64
2024/01/19 03:54:39;;;;;;;14.00;6.63;;;;;;;;;;5129393;27;20043;-64
2024/01/19 03:57:06;;;;;;;21.60;6.68;;;;;;;;;;5129140;27;20152;-68
2024/01/19 03:59:32;;;;;;;13.43;6.13;;;;;;;;;;5128971;27;20134;-65
2024/01/19 04:01:59;;;;;;;12.82;6.53;;;;;;;;;;5129116;27;20125;-64
2024/01/19 04:04:26;;;;;;;14.57;6.28;;;;;;;;;;5129331;27;20536;-64
2024/01/19 04:06:53;;;;;;;11.82;6.57;;;;;;;;;;5129197;27;20523;-64
2024/01/19 04:09:19;;;;;;;14.45;5.47;;;;;;;;;;5110344;27;20043;-63
2024/01/19 04:11:46;;;;;;;11.07;4.55;;;;;;;;;;5129005;27;20096;-63
2024/01/19 04:14:12;;;;;;;11.82;5.72;;;;;;;;;;5128889;27;20507;-64
2024/01/19 04:16:39;;;;;;;10.65;4.93;;;;;;;;;;5129043;27;20051;-66
2024/01/19 04:19:05;;;;;;;12.23;5.07;;;;;;;;;;5128016;27;20078;-65
2024/01/19 04:21:33;;;;;;;9.13;4.40;;;;;;;;;;5110895;27;20043;-64
2024/01/19 04:23:59;;;;;;;10.02;4.63;;;;;;;;;;5129074;27;20043;-64
2024/01/19 04:26:27;;;;;;;11.93;5.00;;;;;;;;;;5128426;27;20535;-64
2024/01/19 04:28:55;;;;;;;12.45;4.57;;;;;;;;;;5128213;27;20059;-63
2024/01/19 04:31:22;;;;;;;12.40;5.35;;;;;;;;;;5128726;27;20076;-64
2024/01/19 04:33:48;;;;;;;7.82;4.00;;;;;;;;;;5128169;27;20055;-64
2024/01/19 04:36:15;;;;;;;10.50;4.32;;;;;;;;;;5128473;27;20051;-64
2024/01/19 04:38:41;;;;;;;11.38;4.43;;;;;;;;;;5109754;27;20066;-66
2024/01/19 04:41:07;;;;;;;11.30;4.20;;;;;;;;;;5128453;27;20043;-63
2024/01/19 04:43:34;;;;;;;8.00;4.00;;;;;;;;;;5128985;27;20063;-64
2024/01/19 04:46:00;;;;;;;14.23;4.72;;;;;;;;;;5128364;27;20054;-64
2024/01/19 04:48:27;;;;;;;15.93;4.68;;;;;;;;;;5127762;27;20100;-64
2024/01/19 04:50:53;;;;;;;8.57;3.83;;;;;;;;;;5128405;27;20079;-64
2024/01/19 04:53:20;;;;;;;10.68;3.15;;;;;;;;;;5127934;27;20118;-63
2024/01/19 04:55:46;;;;;;;10.15;3.60;;;;;;;;;;5128363;27;20057;-64
2024/01/19 04:58:12;;;;;;;15.73;3.55;;;;;;;;;;5127429;27;20039;-63
2024/01/19 05:00:39;;;;;;;9.65;3.90;;;;;;;;;;5127942;27;20051;-65
2024/01/19 05:03:05;;;;;;;9.93;3.92;;;;;;;;;;5128063;27;20058;-64
2024/01/19 05:05:32;;;;;;;16.85;4.43;;;;;;;;;;5128178;27;20043;-64
2024/01/19 05:08:00;;;;;;;11.18;3.47;;;;;;;;;;5127494;27;20076;-63
2024/01/19 05:10:26;;;;;;;8.35;3.28;;;;;;;;;;5128104;27;20598;-64
2024/01/19 05:12:53;;;;;;;7.25;3.30;;;;;;;;;;5127814;27;20130;-64
2024/01/19 05:15:19;;;;;;;14.05;3.88;;;;;;;;;;5109616;27;20054;-62
2024/01/19 05:17:48;;;;;;;20.83;3.33;;;;;;;;;;5127358;27;20035;-63
2024/01/19 05:20:15;;;;;;;11.52;3.13;;;;;;;;;;5109565;27;20062;-64
2024/01/19 05:22:41;;;;;;;4.72;3.30;;;;;;;;;;5128006;27;20043;-63
2024/01/19 05:25:08;;;;;;;12.13;4.13;;;;;;;;;;5127814;27;20043;-64
2024/01/19 05:27:34;;;;;;;11.90;3.40;;;;;;;;;;5127216;27;20390;-64
2024/01/19 05:30:01;;;;;;;8.82;3.33;;;;;;;;;;5127648;27;20567;-63
2024/01/19 05:32:27;;;;;;;11.30;3.55;;;;;;;;;;5127682;27;20403;-65
2024/01/19 05:34:54;;;;;;;10.95;3.10;;;;;;;;;;5127952;27;20582;-64
2024/01/19 05:37:20;;;;;;;9.73;3.58;;;;;;;;;;5127431;27;20043;-65
2024/01/19 05:39:47;;;;;;;11.90;2.78;;;;;;;;;;5129065;27;20560;-65
2024/01/19 05:42:13;;;;;;;11.52;4.13;;;;;;;;;;5113097;28;20096;-66
2024/01/19 05:44:41;;;;;;;7.78;3.55;;;;;;;;;;5129174;28;20082;-63
2024/01/19 05:47:07;;;;;;;12.43;3.65;;;;;;;;;;5127155;27;20138;-63
2024/01/19 05:49:34;;;;;;;5.72;3.00;;;;;;;;;;5108905;28;20051;-65
2024/01/19 05:52:00;;;;;;;8.45;3.42;;;;;;;;;;5127612;28;20051;-64
2024/01/19 05:54:27;;;;;;;9.32;3.28;;;;;;;;;;5127369;28;20059;-64
2024/01/19 05:56:53;;;;;;;8.25;3.40;;;;;;;;;;5127745;28;20099;-63
2024/01/19 05:59:20;;;;;;;6.53;3.13;;;;;;;;;;5126594;28;20070;-64
2024/01/19 06:01:46;;;;;;;9.00;3.10;;;;;;;;;;5127394;28;20047;-64
2024/01/19 06:04:12;;;;;;;7.55;3.42;;;;;;;;;;5127747;28;20055;-63
2024/01/19 06:06:39;;;;;;;13.18;3.58;;;;;;;;;;5111968;28;20039;-63
2024/01/19 06:09:06;;;;;;;12.88;3.72;;;;;;;;;;5110010;28;20061;-67
2024/01/19 06:11:32;;;;;;;8.20;3.80;;;;;;;;;;5127728;28;20050;-63
2024/01/19 06:13:59;;;;;;;6.80;2.83;;;;;;;;;;5127657;28;20047;-64
2024/01/19 06:16:25;;;;;;;11.40;3.63;;;;;;;;;;5127191;28;20322;-66
2024/01/19 06:18:52;;;;;;;5.72;3.00;;;;;;;;;;5126840;28;20052;-65
2024/01/19 06:21:19;;;;;;;11.07;3.58;;;;;;;;;;5127371;28;20566;-63
2024/01/19 06:23:45;;;;;;;8.35;3.75;;;;;;;;;;5127111;28;20056;-63
2024/01/19 06:26:12;;;;;;;9.77;3.10;;;;;;;;;;5127052;28;20047;-64
2024/01/19 06:28:40;;;;;;;4.50;2.85;;;;;;;;;;5126688;28;20079;-64
2024/01/19 06:31:08;;;;;;;9.05;3.55;;;;;;;;;;5131904;28;20079;-65
2024/01/19 06:33:34;;;;;;;8.45;2.95;;;;;;;;;;5129478;28;20100;-65
2024/01/19 06:36:06;;;;;;;15.18;3.47;;;;;;;;;;5127463;28;20445;-62
2024/01/19 06:38:32;;;;;;;7.97;3.33;;;;;;;;;;5126824;28;20538;-63
2024/01/19 06:40:59;;;;;;;6.78;3.13;;;;;;;;;;5127387;28;20475;-64
2024/01/19 06:43:25;;;;;;;9.77;3.88;;;;;;;;;;5126998;28;20477;-65
2024/01/19 06:45:51;;;;;;;6.10;3.30;;;;;;;;;;5128347;28;20043;-65
2024/01/19 06:48:18;;;;;;;9.32;3.65;;;;;;;;;;5128717;28;20076;-64
2024/01/19 06:50:45;;;;;;;9.50;3.60;;;;;;;;;;5121535;28;20047;-64
2024/01/19 06:53:11;;;;;;;7.05;3.85;;;;;;;;;;5115405;28;20054;-66
2024/01/19 06:55:37;;;;;;;15.43;5.82;;;;;;;;;;5111625;28;20071;-65
2024/01/19 06:58:04;;;;;;;12.57;3.83;;;;;;;;;;5130190;27;20399;-63
2024/01/19 07:00:30;;;;;;;15.55;4.35;;;;;;;;;;5130835;27;20114;-64
2024/01/19 07:02:57;;;;;;;7.35;3.42;;;;;;;;;;5130603;27;20443;-63
2024/01/19 07:05:23;;;;;;;11.10;3.85;;;;;;;;;;5130888;27;20151;-63
2024/01/19 07:07:50;;;;;;;6.85;3.83;;;;;;;;;;5130456;27;20042;-64
2024/01/19 07:10:16;;;;;;;9.35;3.88;;;;;;;;;;5111582;27;20055;-64
2024/01/19 07:12:43;;;;;;;9.60;4.50;;;;;;;;;;5130504;27;20047;-64
2024/01/19 07:15:09;;;;;;;12.32;5.00;;;;;;;;;;5130311;27;20047;-65
2024/01/19 07:17:36;;;;;;;16.25;5.05;;;;;;;;;;5129389;27;20572;-65
2024/01/19 07:20:05;;;;;;;8.10;4.03;;;;;;;;;;5129664;27;20050;-64
2024/01/19 07:22:32;;;;;;;8.35;3.83;;;;;;;;;;5122909;27;20499;-63
2024/01/19 07:24:59;;;;;;;14.30;4.72;;;;;;;;;;5126595;27;20766;-64
2024/01/19 07:27:25;;;;;;;11.43;4.13;;;;;;;;;;5129056;27;20047;-61
2024/01/19 07:29:52;;;;;;;9.82;4.55;;;;;;;;;;5128775;27;20074;-66
2024/01/19 07:32:21;;;;;;;9.07;4.32;;;;;;;;;;5129672;27;20054;-62
2024/01/19 07:34:47;;;;;;;10.48;4.88;;;;;;;;;;5110990;27;20054;-67
2024/01/19 07:37:14;;;;;;;8.85;4.28;;;;;;;;;;5110953;27;20137;-65
2024/01/19 07:39:41;;;;;;;9.95;4.75;;;;;;;;;;5129036;27;20084;-64
2024/01/19 07:42:07;;;;;;;14.85;3.67;;;;;;;;;;5129252;27;20047;-65
2024/01/19 07:44:34;;;;;;;11.52;4.30;;;;;;;;;;5110708;27;20047;-65
2024/01/19 07:47:00;;;;;;;9.60;4.95;;;;;;;;;;5129209;27;20051;-61
2024/01/19 07:49:27;;;;;;;29.88;6.03;;;;;;;;;;5128606;27;20134;-63
2024/01/19 07:51:53;;;;;;;13.75;4.57;;;;;;;;;;5128792;27;20125;-63
2024/01/19 07:54:20;;;;;;;12.35;4.47;;;;;;;;;;5128840;27;20681;-65
2024/01/19 07:56:47;;;;;;;8.77;5.20;;;;;;;;;;5128744;27;20126;-66
2024/01/19 07:59:13;;;;;;;13.52;4.97;;;;;;;;;;5128531;27;20162;-63
2024/01/19 08:01:40;;;;;;;18.35;5.60;;;;;;;;;;5128830;27;20042;-65
2024/01/19 08:04:06;;;;;;;9.98;4.28;;;;;;;;;;5128781;27;20050;-64
2024/01/19 08:06:33;;;;;;;12.40;4.93;;;;;;;;;;5128422;27;20050;-61
2024/01/19 08:08:59;;;;;;;16.83;7.72;;;;;;;;;;5125650;27;20047;-69
2024/01/19 08:11:26;;;;;;;10.80;4.38;;;;;;;;;;5126194;27;20511;-66
2024/01/19 08:13:53;;;;;;;16.75;6.43;;;;;;;;;;5128624;27;20114;-62
2024/01/19 08:16:19;;;;;;;16.45;7.15;;;;;;;;;;5128549;27;20543;-63
2024/01/19 08:18:46;;;;;;;12.25;5.55;;;;;;;;;;5110165;27;20051;-62
2024/01/19 08:21:12;;;;;;;16.13;5.65;;;;;;;;;;5126617;27;20039;-64
2024/01/19 08:23:39;;;;;;;13.75;5.35;;;;;;;;;;5110065;27;20507;-61
2024/01/19 08:26:06;;;;;;;18.98;6.13;;;;;;;;;;5128332;27;20053;-65
2024/01/19 08:28:32;;;;;;;11.82;6.90;;;;;;;;;;5108211;27;20047;-67
2024/01/19 08:30:59;;;;;;;11.55;5.85;;;;;;;;;;5127823;27;20532;-64
2024/01/19 08:33:25;;;;;;;12.77;5.82;;;;;;;;;;5128193;27;20047;-65
2024/01/19 08:35:52;;;;;;;14.00;6.35;;;;;;;;;;5110071;27;20046;-65
2024/01/19 08:38:18;;;;;;;13.30;6.47;;;;;;;;;;5127341;27;20054;-64
2024/01/19 08:40:45;;;;;;;15.63;6.57;;;;;;;;;;5126172;27;20047;-65
2024/01/19 08:43:11;;;;;;;12.00;6.88;;;;;;;;;;5127725;27;20480;-62
2024/01/19 08:45:38;;;;;;;12.90;5.82;;;;;;;;;;5111035;27;20798;-61
2024/01/19 08:48:05;;;;;;;12.82;6.05;;;;;;;;;;5108926;27;20053;-64
2024/01/19 08:50:31;;;;;;;16.17;6.60;;;;;;;;;;5107241;27;20058;-64
2024/01/19 08:52:58;;;;;;;18.55;6.75;;;;;;;;;;5126904;27;20050;-64
2024/01/19 08:55:25;;;;;;;18.00;6.47;;;;;;;;;;5127661;27;20049;-67
2024/01/19 08:57:51;;;;;;;15.15;7.35;;;;;;;;;;5127457;27;20264;-65
2024/01/19 09:00:18;;;;;;;22.52;7.45;;;;;;;;;;5129222;27;20043;-66
2024/01/19 09:02:46;;;;;;;15.93;7.43;;;;;;;;;;5128870;27;20046;-70
2024/01/19 09:05:26;;;;;;;13.82;6.53;;;;;;;;;;5123637;27;20558;-64
2024/01/19 09:07:54;;;;;;;17.92;6.55;;;;;;;;;;5127397;27;20472;-64
2024/01/19 09:10:21;;;;;;;19.17;7.95;;;;;;;;;;5127813;27;20134;-65
2024/01/19 09:12:48;;;;;;;15.57;7.15;;;;;;;;;;5127974;27;20069;-65
2024/01/19 09:15:16;;;;;;;17.05;6.88;;;;;;;;;;5126968;27;20039;-64
2024/01/19 09:17:42;;;;;;;17.55;6.32;;;;;;;;;;5127489;27;20047;-65
2024/01/19 09:20:10;;;;;;;18.30;7.68;;;;;;;;;;5126773;27;20100;-65
2024/01/19 09:22:36;;;;;;;14.20;6.35;;;;;;;;;;5127550;27;20058;-64
2024/01/19 09:25:03;;;;;;;11.68;7.00;;;;;;;;;;5127858;27;20067;-65
2024/01/19 09:27:30;;;;;;;13.70;6.82;;;;;;;;;;5128465;27;20051;-66
2024/01/19 09:29:56;;;;;;;14.32;7.13;;;;;;;;;;5127266;27;20040;-65
2024/01/19 09:32:23;;;;;;;17.10;7.20;;;;;;;;;;5109272;27;20055;-65
2024/01/19 09:34:49;;;;;;;15.38;7.28;;;;;;;;;;5124512;27;20129;-68
2024/01/19 09:37:16;;;;;;;16.27;7.10;;;;;;;;;;5125109;27;20039;-70
2024/01/19 09:39:42;;;;;;;13.88;7.25;;;;;;;;;;5107958;27;20073;-64
2024/01/19 09:42:17;;;;;;;12.77;6.70;;;;;;;;;;5125934;27;20046;-66
2024/01/19 09:44:49;;;;;;;14.07;7.43;;;;;;;;;;5104037;28;20039;-65
2024/01/19 09:47:17;;;;;;;14.02;6.57;;;;;;;;;;5111387;28;20108;-65
2024/01/19 09:49:58;;;;;;;18.10;7.45;;;;;;;;;;5116883;28;20102;-65
2024/01/19 09:52:26;;;;;;;12.20;6.90;;;;;;;;;;5126713;28;21528;-67
2024/01/19 09:54:54;;;;;;;25.08;8.23;;;;;;;;;;5127501;28;20605;-66
2024/01/19 09:57:20;;;;;;;24.27;7.57;;;;;;;;;;5124263;28;20054;-68
2024/01/19 09:59:47;;;;;;;15.93;8.00;;;;;;;;;;5127834;28;20681;-69
2024/01/19 10:02:14;;;;;;;13.32;7.45;;;;;;;;;;5125271;28;20047;-66
2024/01/19 10:04:41;;;;;;;18.00;7.97;;;;;;;;;;5125484;28;20660;-70
2024/01/19 10:07:07;;;;;;;15.75;7.18;;;;;;;;;;5125185;28;20047;-69
2024/01/19 10:09:34;;;;;;;20.52;8.95;;;;;;;;;;5125712;28;20051;-68
2024/01/19 10:12:00;;;;;;;14.75;8.10;;;;;;;;;;5125822;28;20073;-65
2024/01/19 10:14:28;;;;;;;19.98;8.73;;;;;;;;;;5125834;28;20061;-65
2024/01/19 10:16:54;;;;;;;14.55;7.55;;;;;;;;;;5126402;28;20538;-65
2024/01/19 10:19:21;;;;;;;17.42;8.57;;;;;;;;;;5126581;28;20058;-65
2024/01/19 10:21:49;;;;;;;16.40;8.13;;;;;;;;;;5126138;28;20050;-68
2024/01/19 10:24:19;;;;;;;18.15;8.93;;;;;;;;;;5125636;28;20046;-64
2024/01/19 10:26:53;;;;;;;21.13;9.20;;;;;;;;;;5125846;28;20088;-64
2024/01/19 10:29:20;;;;;;;17.38;7.97;;;;;;;;;;5125631;28;20406;-65
2024/01/19 10:31:48;;;;;;;15.38;8.38;;;;;;;;;;5125916;27;20583;-64
2024/01/19 10:34:15;;;;;;;14.35;7.93;;;;;;;;;;5111030;27;20487;-65
2024/01/19 10:36:41;;;;;;;14.95;7.85;;;;;;;;;;5130287;27;20054;-68
2024/01/19 10:39:24;;;;;;;22.52;8.48;;;;;;;;;;5129699;27;20051;-66
2024/01/19 10:41:52;;;;;;;17.35;8.25;;;;;;;;;;5112074;27;20043;-64
2024/01/19 10:44:20;;;;;;;21.05;7.85;;;;;;;;;;5131617;27;20118;-66
2024/01/19 10:46:47;;;;;;;15.82;7.68;;;;;;;;;;5132889;27;20043;-64
2024/01/19 10:49:15;;;;;;;18.30;8.82;;;;;;;;;;5129784;27;20043;-67
2024/01/19 10:51:44;;;;;;;16.83;8.30;;;;;;;;;;5115488;27;20055;-73
2024/01/19 10:54:16;;;;;;;14.30;7.82;;;;;;;;;;5128565;27;20055;-65
2024/01/19 10:56:44;;;;;;;18.67;8.48;;;;;;;;;;5129909;27;20043;-65
2024/01/19 10:59:12;;;;;;;18.00;7.70;;;;;;;;;;5129384;27;20091;-65
2024/01/19 11:01:39;;;;;;;16.35;8.77;;;;;;;;;;5118243;27;20052;-67
2024/01/19 11:04:06;;;;;;;19.17;8.63;;;;;;;;;;5124853;27;20403;-65
2024/01/19 11:06:34;;;;;;;17.10;8.00;;;;;;;;;;5119021;27;20047;-65
2024/01/19 11:09:00;;;;;;;14.82;8.23;;;;;;;;;;5126897;27;20066;-69
2024/01/19 11:11:30;;;;;;;14.60;8.20;;;;;;;;;;5129332;27;20039;-74
2024/01/19 11:13:58;;;;;;;11.75;6.72;;;;;;;;;;5125056;27;20116;-72
2024/01/19 11:16:25;;;;;;;18.15;7.25;;;;;;;;;;5127843;27;20445;-65
2024/01/19 11:18:52;;;;;;;14.10;6.93;;;;;;;;;;5128175;27;20162;-63
2024/01/19 11:21:19;;;;;;;14.43;7.28;;;;;;;;;;5128948;27;20128;-65
2024/01/19 11:23:46;;;;;;;11.15;6.88;;;;;;;;;;5128921;27;20138;-63
2024/01/19 11:26:22;;;;;;;21.20;7.43;;;;;;;;;;5128947;27;20483;-67
2024/01/19 11:28:48;;;;;;;14.05;7.47;;;;;;;;;;5128080;27;20129;-66
2024/01/19 11:31:25;;;;;;;14.95;7.10;;;;;;;;;;5127523;27;20495;-62
2024/01/19 11:33:53;;;;;;;17.15;6.05;;;;;;;;;;5109665;27;20051;-63
2024/01/19 11:36:36;;;;;;;16.25;7.00;;;;;;;;;;5127904;27;20051;-64
2024/01/19 11:39:05;;;;;;;9.95;6.25;;;;;;;;;;5105850;28;20825;-65
2024/01/19 11:41:31;;;;;;;12.80;6.95;;;;;;;;;;5123896;27;20564;-65
2024/01/19 11:43:59;;;;;;;15.80;7.35;;;;;;;;;;5127835;27;20039;-64
2024/01/19 11:46:44;;;;;;;12.02;5.95;;;;;;;;;;5128742;27;20046;-64
2024/01/19 11:49:29;;;;;;;14.23;6.28;;;;;;;;;;5123540;27;20065;-65
2024/01/19 11:51:56;;;;;;;11.55;7.72;;;;;;;;;;5128343;27;20074;-64
2024/01/19 11:54:25;;;;;;;11.07;5.82;;;;;;;;;;5127697;27;20047;-66
2024/01/19 11:56:51;;;;;;;19.67;7.22;;;;;;;;;;5126529;27;20745;-68
2024/01/19 11:59:19;;;;;;;12.35;6.90;;;;;;;;;;5125270;27;20051;-64
2024/01/19 12:01:45;;;;;;;19.27;7.70;;;;;;;;;;5107330;27;20039;-68
2024/01/19 12:04:13;;;;;;;12.88;6.03;;;;;;;;;;5125546;27;20035;-64
2024/01/19 12:06:39;;;;;;;15.90;6.78;;;;;;;;;;5125476;27;20069;-65
2024/01/19 12:09:07;;;;;;;15.07;7.25;;;;;;;;;;5107417;27;20051;-64
2024/01/19 12:11:34;;;;;;;19.33;8.05;;;;;;;;;;5125931;27;20054;-67
2024/01/19 12:14:03;;;;;;;15.85;7.20;;;;;;;;;;5125618;27;20498;-63
2024/01/19 12:16:32;;;;;;;15.52;6.85;;;;;;;;;;5125838;27;20142;-67
2024/01/19 12:18:58;;;;;;;12.43;6.72;;;;;;;;;;5106832;27;20043;-63
2024/01/19 12:21:25;;;;;;;13.85;7.55;;;;;;;;;;5107883;27;20047;-68
2024/01/19 12:23:52;;;;;;;13.10;6.82;;;;;;;;;;5125378;27;20043;-63
2024/01/19 12:26:20;;;;;;;10.88;5.68;;;;;;;;;;5106932;27;20043;-64
2024/01/19 12:28:50;;;;;;;11.23;7.22;;;;;;;;;;5125401;27;20051;-66
2024/01/19 12:31:21;;;;;;;12.35;7.45;;;;;;;;;;5107422;27;20442;-62
2024/01/19 12:33:47;;;;;;;12.43;6.37;;;;;;;;;;5124861;27;20068;-66
2024/01/19 12:36:17;;;;;;;13.68;6.72;;;;;;;;;;5125243;27;20043;-64
2024/01/19 12:38:44;;;;;;;12.85;6.93;;;;;;;;;;5124432;27;20049;-64
2024/01/19 12:41:17;;;;;;;19.48;7.63;;;;;;;;;;5106840;27;20055;-65
2024/01/19 12:43:44;;;;;;;20.92;6.88;;;;;;;;;;5124891;27;20092;-66
2024/01/19 12:46:12;;;;;;;15.13;6.70;;;;;;;;;;5106413;27;20155;-66
2024/01/19 12:48:39;;;;;;;16.00;7.35;;;;;;;;;;5124479;27;20099;-65
2024/01/19 12:51:06;;;;;;;11.43;7.72;;;;;;;;;;5102804;27;20055;-64
2024/01/19 12:53:33;;;;;;;14.07;7.32;;;;;;;;;;5125015;27;20512;-67
2024/01/19 12:56:20;;;;;;;18.25;8.90;;;;;;;;;;5124124;27;20043;-64
2024/01/19 12:58:47;;;;;;;14.02;7.70;;;;;;;;;;5124418;27;20075;-66
2024/01/19 13:01:15;;;;;;;12.45;6.97;;;;;;;;;;5106336;27;20424;-65
2024/01/19 13:03:42;;;;;;;15.02;7.05;;;;;;;;;;5124479;27;20047;-66
2024/01/19 13:06:09;;;;;;;26.55;7.60;;;;;;;;;;5119490;27;20537;-65
2024/01/19 13:08:35;;;;;;;11.77;6.10;;;;;;;;;;5124067;27;20043;-64
2024/01/19 13:11:05;;;;;;;14.63;7.03;;;;;;;;;;5124587;27;20099;-66
2024/01/19 13:13:32;;;;;;;14.60;7.50;;;;;;;;;;5124983;27;20455;-69
2024/01/19 13:16:05;;;;;;;21.67;8.23;;;;;;;;;;5123754;27;20053;-65
2024/01/19 13:18:32;;;;;;;15.75;7.30;;;;;;;;;;5123802;27;20047;-65
2024/01/19 13:21:13;;;;;;;13.77;7.45;;;;;;;;;;5124345;27;20051;-66
2024/01/19 13:23:41;;;;;;;17.83;6.80;;;;;;;;;;5124492;27;20047;-64
2024/01/19 13:26:14;;;;;;;13.98;6.60;;;;;;;;;;5089504;27;20449;-65
2024/01/19 13:28:41;;;;;;;15.15;7.63;;;;;;;;;;5123498;27;20043;-64
2024/01/19 13:31:08;;;;;;;20.40;6.88;;;;;;;;;;5124081;27;20137;-67
2024/01/19 13:33:34;;;;;;;13.40;7.32;;;;;;;;;;5123463;27;20092;-69
2024/01/19 13:36:01;;;;;;;11.30;6.82;;;;;;;;;;5123520;27;20134;-65
2024/01/19 13:38:27;;;;;;;13.25;8.05;;;;;;;;;;5123426;27;20047;-65
2024/01/19 13:40:54;;;;;;;19.23;7.65;;;;;;;;;;5123910;27;20051;-69
2024/01/19 13:43:20;;;;;;;13.05;6.85;;;;;;;;;;5105016;28;20154;-66
2024/01/19 13:45:47;;;;;;;13.63;7.03;;;;;;;;;;5124073;28;20575;-65
2024/01/19 13:48:13;;;;;;;13.00;7.75;;;;;;;;;;5123190;28;20047;-65
2024/01/19 13:50:39;;;;;;;15.55;7.32;;;;;;;;;;5119612;28;20047;-66
2024/01/19 13:53:06;;;;;;;21.67;8.15;;;;;;;;;;5115767;28;20047;-66
2024/01/19 13:55:33;;;;;;;15.35;8.57;;;;;;;;;;5123879;28;20074;-64
2024/01/19 13:58:00;;;;;;;17.02;8.00;;;;;;;;;;5123438;28;20094;-62
2024/01/19 14:00:26;;;;;;;22.40;7.40;;;;;;;;;;5124562;28;20047;-70
2024/01/19 14:02:53;;;;;;;11.73;6.50;;;;;;;;;;5123957;28;20066;-64
2024/01/19 14:05:19;;;;;;;15.40;6.82;;;;;;;;;;5117827;28;20044;-65
2024/01/19 14:07:46;;;;;;;17.60;8.13;;;;;;;;;;5119798;27;20042;-74
2024/01/19 14:10:12;;;;;;;16.73;7.07;;;;;;;;;;5117369;27;20054;-66
2024/01/19 14:12:39;;;;;;;13.63;7.72;;;;;;;;;;5127052;27;20058;-64
2024/01/19 14:15:07;;;;;;;16.33;7.13;;;;;;;;;;5120812;27;20055;-66
2024/01/19 14:17:33;;;;;;;13.98;7.78;;;;;;;;;;5127400;27;20607;-65
2024/01/19 14:19:59;;;;;;;15.90;8.68;;;;;;;;;;5127007;27;20047;-66
2024/01/19 14:22:26;;;;;;;19.00;8.07;;;;;;;;;;5127744;27;20796;-63
2024/01/19 14:24:53;;;;;;;15.18;7.07;;;;;;;;;;5127702;27;20768;-68
2024/01/19 14:27:24;;;;;;;21.92;7.60;;;;;;;;;;5127277;27;20051;-65
2024/01/19 14:29:51;;;;;;;24.10;7.90;;;;;;;;;;5127566;27;20134;-64
2024/01/19 14:32:17;;;;;;;16.42;7.78;;;;;;;;;;5126808;27;20047;-69